Alden, Iowa
Current Conditions -  °F | °C
As of 3:35 AM on Thursday 27 Nov 2014 (Local Time) from KIFA Reporting Station
Broken Clouds Broken Clouds  
Wind Chill: -9°   Ceiling: 2600
Heat Index:   Visibility: 10mi
Dew Point:   Wind: 14mph
Humidity: 81%   Direction: 310°NW
Pressure: 30.43"   Gusts: NA
Location:  42.52°N, 93.38°W
Report Text: KIFA 270935Z AUTO 31012KT 10SM BKN026 M13/M16 A3043 RMK AO2 T11351161
Loading
Personal Weather Stations






























Interactive Weather Map New forecast layout! Learn more

10-Day Weather Forecast

Advertisements
Track Severe Weather on mobile